createdAt,value
2022-11-23T18:21:55.140Z,1.40
2022-11-23T18:24:43.747Z,1.40
2022-11-23T18:27:32.314Z,1.40
2022-11-23T18:30:21.109Z,1.50
2022-11-23T18:33:09.634Z,1.40
2022-11-23T18:36:03.655Z,1.30
2022-11-23T18:38:55.455Z,1.20
2022-11-23T18:41:44.154Z,1.00
2022-11-23T18:44:32.705Z,1.10
2022-11-23T18:47:21.176Z,1.00
2022-11-23T18:50:10.079Z,1.20
2022-11-23T18:52:58.671Z,0.90
2022-11-23T18:55:48.497Z,1.00
2022-11-23T18:58:41.260Z,1.10
2022-11-23T19:01:30.288Z,1.40
2022-11-23T19:04:18.941Z,1.50
2022-11-23T19:07:07.716Z,1.10
2022-11-23T19:09:56.423Z,1.30
2022-11-23T19:12:46.807Z,1.10
2022-11-23T19:15:35.330Z,1.30
2022-11-23T19:18:23.914Z,1.20
2022-11-23T19:21:14.157Z,1.20
2022-11-23T19:24:03.599Z,1.30
2022-11-23T19:26:52.475Z,1.50
2022-11-23T19:29:42.468Z,1.20
2022-11-23T19:32:31.404Z,1.40
2022-11-23T19:35:19.878Z,1.30
2022-11-23T19:38:11.249Z,1.40
2022-11-23T19:40:59.799Z,1.30
2022-11-23T19:43:48.619Z,1.20
2022-11-23T19:46:38.596Z,1.10
2022-11-23T19:49:27.185Z,0.80
2022-11-23T19:52:15.569Z,0.90
2022-11-23T19:55:05.949Z,0.90
2022-11-23T19:57:54.911Z,0.90
2022-11-23T20:00:45.779Z,1.00
2022-11-23T20:03:37.549Z,1.20
2022-11-23T20:06:28.394Z,1.30
2022-11-23T20:09:19.342Z,1.10
2022-11-23T20:12:08.311Z,0.90
2022-11-23T20:14:56.805Z,1.10
2022-11-23T20:17:47.248Z,1.30
2022-11-23T20:20:41.264Z,1.40
2022-11-23T20:23:30.255Z,1.20
2022-11-23T20:26:19.932Z,1.20
2022-11-23T20:29:09.245Z,1.40
2022-11-23T20:31:57.803Z,1.30
2022-11-23T20:34:47.163Z,1.40
2022-11-23T20:37:37.452Z,1.10
2022-11-23T20:40:26.072Z,1.10
2022-11-23T20:43:15.102Z,0.90
2022-11-23T20:46:03.665Z,1.10
2022-11-23T20:48:53.424Z,1.30
2022-11-23T20:51:41.931Z,1.30
2022-11-23T20:54:32.915Z,1.20
2022-11-23T20:57:22.173Z,1.10
2022-11-23T21:00:12.034Z,1.00
2022-11-23T21:03:00.683Z,0.90
2022-11-23T21:05:49.391Z,1.10
2022-11-23T21:08:41.930Z,0.90
2022-11-23T21:11:49.268Z,1.00
2022-11-23T21:14:37.958Z,1.20
2022-11-23T21:17:26.527Z,1.00
2022-11-23T21:20:15.815Z,0.50
2022-11-23T21:23:04.783Z,0.70
2022-11-23T21:25:53.483Z,0.90
2022-11-23T21:28:43.675Z,0.60
2022-11-23T21:31:32.505Z,0.60
2022-11-23T21:34:22.656Z,0.70
2022-11-23T21:37:12.589Z,0.70
2022-11-23T21:40:01.214Z,0.60
2022-11-23T21:42:49.741Z,0.60
2022-11-23T21:45:39.615Z,0.80
2022-11-23T21:48:28.769Z,0.70
2022-11-23T21:51:17.438Z,0.70
2022-11-23T21:54:08.113Z,0.70
2022-11-23T21:56:56.585Z,0.70
2022-11-23T21:59:45.339Z,0.60
2022-11-23T22:02:35.273Z,0.70
2022-11-23T22:05:24.536Z,0.70
2022-11-23T22:08:28.867Z,0.70
2022-11-23T22:11:20.907Z,0.70
2022-11-23T22:14:12.006Z,0.50
2022-11-23T22:17:01.307Z,0.70
2022-11-23T22:19:51.601Z,0.50
2022-11-23T22:22:40.618Z,0.50
2022-11-23T22:25:29.229Z,0.80
2022-11-23T22:28:18.493Z,0.90
2022-11-23T22:31:08.219Z,0.70
2022-11-23T22:33:57.254Z,1.00
2022-11-23T22:36:50.712Z,0.70
2022-11-23T22:39:39.265Z,0.60
2022-11-23T22:42:28.021Z,0.60
2022-11-23T22:45:16.673Z,0.50
2022-11-23T22:48:05.907Z,0.40
2022-11-23T22:50:58.180Z,0.50
2022-11-23T22:53:48.312Z,0.50
2022-11-23T22:56:39.137Z,0.30
2022-11-23T22:59:28.381Z,0.30
2022-11-23T23:02:17.226Z,0.30
2022-11-23T23:05:06.644Z,0.60
2022-11-23T23:07:56.838Z,0.60
2022-11-23T23:10:47.089Z,0.50
2022-11-23T23:13:36.110Z,0.40
2022-11-23T23:16:25.194Z,0.40
2022-11-23T23:19:14.177Z,0.40
2022-11-23T23:22:02.784Z,0.70
2022-11-23T23:24:51.497Z,0.70
2022-11-23T23:27:41.333Z,0.60
2022-11-23T23:30:30.163Z,0.60
2022-11-23T23:33:18.714Z,0.60
2022-11-23T23:36:09.147Z,0.60
2022-11-23T23:38:58.500Z,0.50
2022-11-23T23:41:47.284Z,0.50
2022-11-23T23:44:37.260Z,0.70
2022-11-23T23:47:25.891Z,0.40
2022-11-23T23:50:14.552Z,0.70
2022-11-23T23:53:03.152Z,0.80
2022-11-23T23:55:58.506Z,0.60
